Flight Track Log - Related Links

Times and Time Zones

All times are in EDT time to prevent confusion due to time zone crossing. See the N727NE flight status page for this flight to view local times or setup timezone preferences in your user account.

Time Position Orientation Groundspeed Altitude Reporting Facility
EDT Latitude Longitude Course Direction KTS MPH feet Rate Location/Type
Tue 03:35:07 PM 41.2608 -83.1094 207° Southwest 129 148 8,000  Level Indianapolis Center
Tue 03:36:09 PM 41.2242 -83.1339 207° Southwest 126 145 8,100 98 Climbing Indianapolis Center
Tue 03:37:10 PM 41.1919 -83.1536 205° Southwest 126 145 8,200  Climbing Indianapolis Center
Tue 03:38:12 PM 41.1606 -83.1747 207° Southwest 126 145 8,100 -48 Descending Indianapolis Center
Tue 03:39:14 PM 41.1281 -83.1972 208° Southwest 130 150 8,100  Level Indianapolis Center
Tue 03:40:16 PM 41.0964 -83.2178 206° Southwest 128 147 8,100  Level Indianapolis Center
Tue 03:41:18 PM 41.0647 -83.2400 208° Southwest 127 146 8,100  Level Indianapolis Center
Tue 03:42:20 PM 41.0333 -83.2619 208° Southwest 126 145 8,100 -48 Level Indianapolis Center
Tue 03:43:22 PM 41.0064 -83.2925 221° Southwest 126 145 8,000 -48 Descending Indianapolis Center
Tue 03:44:24 PM 40.9769 -83.3261 221° Southwest 120 138 8,000  Level Indianapolis Center
Tue 03:45:26 PM 40.9508 -83.3553 220° Southwest 120 138 8,000  Level Indianapolis Center
Tue 03:46:28 PM 40.9267 -83.3861 224° Southwest 120 138 8,000 48 Level Indianapolis Center
Tue 03:47:30 PM 40.9014 -83.4147 221° Southwest 120 138 8,100 48 Climbing Indianapolis Center
Tue 03:48:32 PM 40.8744 -83.4419 217° Southwest 120 138 8,100  Level Indianapolis Center
Tue 03:49:34 PM 40.8458 -83.4681 215° Southwest 124 143 8,100  Level Indianapolis Center
Tue 03:50:36 PM 40.8186 -83.4950 217° Southwest 122 140 8,100  Level Indianapolis Center
Tue 03:51:38 PM 40.7864 -83.5192 210° Southwest 121 139 8,100  Level Indianapolis Center
Tue 03:52:40 PM 40.7553 -83.5353 201° Southwest 118 136 8,100  Level Indianapolis Center
Tue 03:53:42 PM 40.7242 -83.5575 208° Southwest 125 144 8,100 -48 Level Indianapolis Center
Tue 03:54:44 PM 40.6939 -83.5758 205° Southwest 120 138 8,000  Descending Indianapolis Center
Tue 03:55:46 PM 40.6633 -83.5944 205° Southwest 120 138 8,100  Climbing Indianapolis Center
Tue 03:56:48 PM 40.6258 -83.6169 204° Southwest 126 145 8,000 48 Descending Indianapolis Center
Tue 03:57:50 PM 40.5931 -83.6394 208° Southwest 126 145 8,200 48 Climbing Indianapolis Center
Tue 03:58:52 PM 40.5661 -83.6583 208° Southwest 120 138 8,100 -48 Descending Indianapolis Center
Tue 03:59:54 PM 40.5344 -83.6767 204° Southwest 122 140 8,100 98 Level Indianapolis Center
Tue 04:00:55 PM 40.5042 -83.6956 205° Southwest 121 139 8,300  Climbing Indianapolis Center
Tue 04:01:57 PM 40.4672 -83.7167 203° Southwest 130 150 8,100 -97 Descending Indianapolis Center
Tue 04:02:59 PM 40.4367 -83.7347 204° Southwest 130 150 8,100 48 Level Indianapolis Center
Tue 04:04:01 PM 40.4014 -83.7553 204° Southwest 129 148 8,200  Climbing Indianapolis Center
Tue 04:05:03 PM 40.3647 -83.7758 203° Southwest 129 148 8,100  Descending Indianapolis Center
Tue 04:06:05 PM 40.3325 -83.7958 205° Southwest 128 147 8,200 45 Climbing Indianapolis Center
Tue 04:07:15 PM 40.2933 -83.8186 204° Southwest 130 150 8,200 -48 Level Indianapolis Center
Tue 04:08:09 PM 40.2672 -83.8344 205° Southwest 128 147 8,100 -55 Descending Indianapolis Center
Tue 04:09:04 PM 40.2328 -83.8547 204° Southwest 130 150 8,100 66 Level Indianapolis Center
Tue 04:11:12 PM 40.1614 -83.8944 203° Southwest 131 151 8,300 32 Climbing Indianapolis Center
Tue 04:12:13 PM 40.1297 -83.9161 208° Southwest 129 148 8,200 -103 Descending Indianapolis Center
Tue 04:13:08 PM 40.1003 -83.9358 207° Southwest 131 151 8,100 -52 Descending Indianapolis Center
Tue 04:14:09 PM 40.0664 -83.9572 206° Southwest 135 155 8,100 -148 Level Indianapolis Center
Tue 04:15:10 PM 40.0306 -83.9783 204° Southwest 142 163 7,800 -397 Descending Indianapolis Center
Tue 04:16:10 PM 39.9928 -83.9989 203° Southwest 150 173 7,300 -496 Descending Indianapolis Center
Tue 04:17:11 PM 39.9547 -84.0197 203° Southwest 148 170 6,800 -443 Descending Indianapolis Center
Tue 04:18:12 PM 39.9142 -84.0453 206° Southwest 152 175 6,400 -443 Descending Indianapolis Center
Tue 04:19:13 PM 39.8742 -84.0656 201° Southwest 151 174 5,900 -492 Descending Indianapolis Center
Tue 04:20:14 PM 39.8342 -84.0858 201° Southwest 156 180 5,400 -545 Descending Indianapolis Center
Tue 04:21:14 PM 39.7961 -84.1089 205° Southwest 153 176 4,800 -567 Descending Indianapolis Center
Tue 04:22:21 PM 39.7531 -84.1369 207° Southwest 151 174 4,200 -417 Descending Indianapolis Center
Tue 04:23:38 PM 39.7044 -84.1639 203° Southwest 152 175 3,800 -312 Descending Indianapolis Center
Tue 04:25:00 PM 39.6621 -84.1786 195° South  Level FlightAware Approximate
Tue 04:32:00 PM 39.5833 -84.2167 218° Southwest  Level FlightAware Approximate
Tue 04:33:00 PM 39.5890 -84.2249 218° Southwest  Level Estimated

Login

Don't have an account? Register now (free) for customized features, flight alerts, and more!